sensor_id;sensor_type;location;lat;lon;timestamp;temperature;humidity
5429;DHT22;2737;52.386;9.980;2022-08-04T00:00:55;22.80;99.90
5429;DHT22;2737;52.386;9.980;2022-08-04T00:03:28;22.80;99.90
5429;DHT22;2737;52.386;9.980;2022-08-04T00:06:02;22.80;99.90
5429;DHT22;2737;52.386;9.980;2022-08-04T00:08:35;22.80;99.90
5429;DHT22;2737;52.386;9.980;2022-08-04T00:11:07;22.70;99.90
5429;DHT22;2737;52.386;9.980;2022-08-04T00:13:38;22.60;99.90
5429;DHT22;2737;52.386;9.980;2022-08-04T00:16:07;22.50;99.90
5429;DHT22;2737;52.386;9.980;2022-08-04T00:18:39;22.50;99.90
5429;DHT22;2737;52.386;9.980;2022-08-04T00:21:11;22.50;99.90
5429;DHT22;2737;52.386;9.980;2022-08-04T00:23:39;22.50;99.90
5429;DHT22;2737;52.386;9.980;2022-08-04T00:26:09;22.50;99.90
5429;DHT22;2737;52.386;9.980;2022-08-04T00:28:36;22.50;99.90
5429;DHT22;2737;52.386;9.980;2022-08-04T00:31:04;22.50;99.90
5429;DHT22;2737;52.386;9.980;2022-08-04T00:33:31;22.50;99.90
5429;DHT22;2737;52.386;9.980;2022-08-04T00:36:01;22.50;99.90
5429;DHT22;2737;52.386;9.980;2022-08-04T00:38:28;22.40;99.90
5429;DHT22;2737;52.386;9.980;2022-08-04T00:41:08;22.40;99.90
5429;DHT22;2737;52.386;9.980;2022-08-04T00:43:48;22.40;99.90
5429;DHT22;2737;52.386;9.980;2022-08-04T00:49:45;22.10;99.90
5429;DHT22;2737;52.386;9.980;2022-08-04T00:52:32;21.80;99.90
5429;DHT22;2737;52.386;9.980;2022-08-04T00:55:04;21.60;99.90
5429;DHT22;2737;52.386;9.980;2022-08-04T00:57:49;21.60;99.90
5429;DHT22;2737;52.386;9.980;2022-08-04T01:00:21;21.60;99.90
5429;DHT22;2737;52.386;9.980;2022-08-04T01:03:00;21.50;99.90
5429;DHT22;2737;52.386;9.980;2022-08-04T01:05:37;21.50;99.90
5429;DHT22;2737;52.386;9.980;2022-08-04T01:08:23;21.60;99.90
5429;DHT22;2737;52.386;9.980;2022-08-04T01:11:02;21.70;99.90
5429;DHT22;2737;52.386;9.980;2022-08-04T01:13:51;21.70;99.90
5429;DHT22;2737;52.386;9.980;2022-08-04T01:16:24;21.70;99.90
5429;DHT22;2737;52.386;9.980;2022-08-04T01:18:56;21.70;99.90
5429;DHT22;2737;52.386;9.980;2022-08-04T01:24:40;21.60;99.90
5429;DHT22;2737;52.386;9.980;2022-08-04T01:27:14;21.60;99.90
5429;DHT22;2737;52.386;9.980;2022-08-04T01:29:49;21.60;99.90
5429;DHT22;2737;52.386;9.980;2022-08-04T01:32:19;21.60;99.90
5429;DHT22;2737;52.386;9.980;2022-08-04T01:34:51;21.50;99.90
5429;DHT22;2737;52.386;9.980;2022-08-04T01:37:28;21.50;99.90
5429;DHT22;2737;52.386;9.980;2022-08-04T01:40:01;21.40;99.90
5429;DHT22;2737;52.386;9.980;2022-08-04T01:42:31;21.20;99.90
5429;DHT22;2737;52.386;9.980;2022-08-04T01:45:03;21.10;99.90
5429;DHT22;2737;52.386;9.980;2022-08-04T01:47:33;21.20;99.90
5429;DHT22;2737;52.386;9.980;2022-08-04T01:50:06;21.00;99.90
5429;DHT22;2737;52.386;9.980;2022-08-04T01:52:35;20.90;99.90
5429;DHT22;2737;52.386;9.980;2022-08-04T01:55:04;20.80;99.90
5429;DHT22;2737;52.386;9.980;2022-08-04T01:57:32;20.90;99.90
5429;DHT22;2737;52.386;9.980;2022-08-04T02:00:02;20.90;99.90
5429;DHT22;2737;52.386;9.980;2022-08-04T02:02:30;20.90;99.90
5429;DHT22;2737;52.386;9.980;2022-08-04T02:04:57;20.90;99.90
5429;DHT22;2737;52.386;9.980;2022-08-04T02:07:56;20.90;99.90
5429;DHT22;2737;52.386;9.980;2022-08-04T02:10:29;21.00;99.90
5429;DHT22;2737;52.386;9.980;2022-08-04T02:13:08;21.00;99.90
5429;DHT22;2737;52.386;9.980;2022-08-04T02:15:44;21.00;99.90
5429;DHT22;2737;52.386;9.980;2022-08-04T02:18:18;20.90;99.90
5429;DHT22;2737;52.386;9.980;2022-08-04T02:20:48;20.90;99.90
5429;DHT22;2737;52.386;9.980;2022-08-04T02:23:28;20.90;99.90
5429;DHT22;2737;52.386;9.980;2022-08-04T02:25:57;20.70;99.90
5429;DHT22;2737;52.386;9.980;2022-08-04T02:28:32;20.70;99.90
5429;DHT22;2737;52.386;9.980;2022-08-04T02:31:11;20.70;99.90
5429;DHT22;2737;52.386;9.980;2022-08-04T02:33:42;20.80;99.90
5429;DHT22;2737;52.386;9.980;2022-08-04T02:36:13;20.80;99.90
5429;DHT22;2737;52.386;9.980;2022-08-04T02:38:53;20.80;99.90
5429;DHT22;2737;52.386;9.980;2022-08-04T02:41:23;20.80;99.90
5429;DHT22;2737;52.386;9.980;2022-08-04T02:43:54;20.80;99.90
5429;DHT22;2737;52.386;9.980;2022-08-04T02:46:23;20.70;99.90
5429;DHT22;2737;52.386;9.980;2022-08-04T02:48:52;20.60;99.90
5429;DHT22;2737;52.386;9.980;2022-08-04T02:51:22;20.60;99.90
5429;DHT22;2737;52.386;9.980;2022-08-04T02:53:52;20.50;99.90
5429;DHT22;2737;52.386;9.980;2022-08-04T02:56:21;20.40;99.90
5429;DHT22;2737;52.386;9.980;2022-08-04T02:58:51;20.30;99.90
5429;DHT22;2737;52.386;9.980;2022-08-04T03:01:20;20.10;99.90
5429;DHT22;2737;52.386;9.980;2022-08-04T03:03:55;20.10;99.90
5429;DHT22;2737;52.386;9.980;2022-08-04T03:06:52;20.20;99.90
5429;DHT22;2737;52.386;9.980;2022-08-04T03:15:53;20.00;99.90
5429;DHT22;2737;52.386;9.980;2022-08-04T03:25:13;20.20;99.90
5429;DHT22;2737;52.386;9.980;2022-08-04T03:28:10;20.30;99.90
5429;DHT22;2737;52.386;9.980;2022-08-04T03:30:57;20.30;99.90
5429;DHT22;2737;52.386;9.980;2022-08-04T03:33:50;20.30;99.90
5429;DHT22;2737;52.386;9.980;2022-08-04T03:40:05;20.30;99.90
5429;DHT22;2737;52.386;9.980;2022-08-04T03:42:51;20.30;99.90
5429;DHT22;2737;52.386;9.980;2022-08-04T03:48:59;20.20;99.90
5429;DHT22;2737;52.386;9.980;2022-08-04T03:51:40;20.10;99.90
5429;DHT22;2737;52.386;9.980;2022-08-04T03:54:41;20.10;99.90
5429;DHT22;2737;52.386;9.980;2022-08-04T03:57:36;20.00;99.90
5429;DHT22;2737;52.386;9.980;2022-08-04T04:00:07;20.00;99.90
5429;DHT22;2737;52.386;9.980;2022-08-04T04:08:46;19.90;99.90
5429;DHT22;2737;52.386;9.980;2022-08-04T04:11:28;19.90;99.90
5429;DHT22;2737;52.386;9.980;2022-08-04T04:14:19;19.90;99.90
5429;DHT22;2737;52.386;9.980;2022-08-04T04:17:07;19.90;99.90
5429;DHT22;2737;52.386;9.980;2022-08-04T04:19:53;20.00;99.90
5429;DHT22;2737;52.386;9.980;2022-08-04T04:22:40;20.00;99.90
5429;DHT22;2737;52.386;9.980;2022-08-04T04:25:18;20.00;99.90
5429;DHT22;2737;52.386;9.980;2022-08-04T04:28:04;20.00;99.90
5429;DHT22;2737;52.386;9.980;2022-08-04T04:30:44;20.10;99.90
5429;DHT22;2737;52.386;9.980;2022-08-04T04:33:25;20.10;99.90
5429;DHT22;2737;52.386;9.980;2022-08-04T04:36:09;20.20;99.90
5429;DHT22;2737;52.386;9.980;2022-08-04T04:38:50;20.20;99.90
5429;DHT22;2737;52.386;9.980;2022-08-04T04:41:30;20.30;99.90
5429;DHT22;2737;52.386;9.980;2022-08-04T04:44:14;20.30;99.90
5429;DHT22;2737;52.386;9.980;2022-08-04T04:46:56;20.20;99.90
5429;DHT22;2737;52.386;9.980;2022-08-04T04:49:32;20.20;99.90
5429;DHT22;2737;52.386;9.980;2022-08-04T04:52:05;20.20;99.90
5429;DHT22;2737;52.386;9.980;2022-08-04T04:54:40;20.20;99.90
5429;DHT22;2737;52.386;9.980;2022-08-04T04:57:13;20.20;99.90
5429;DHT22;2737;52.386;9.980;2022-08-04T04:59:46;20.20;99.90
5429;DHT22;2737;52.386;9.980;2022-08-04T05:05:29;20.10;99.90
5429;DHT22;2737;52.386;9.980;2022-08-04T05:10:56;20.10;99.90
5429;DHT22;2737;52.386;9.980;2022-08-04T05:13:34;20.20;99.90
5429;DHT22;2737;52.386;9.980;2022-08-04T05:16:07;20.20;99.90
5429;DHT22;2737;52.386;9.980;2022-08-04T05:18:37;20.20;99.90
5429;DHT22;2737;52.386;9.980;2022-08-04T05:21:18;20.30;99.90
5429;DHT22;2737;52.386;9.980;2022-08-04T05:23:49;20.30;99.90
5429;DHT22;2737;52.386;9.980;2022-08-04T05:26:18;20.40;99.90
5429;DHT22;2737;52.386;9.980;2022-08-04T05:28:53;20.40;99.90
5429;DHT22;2737;52.386;9.980;2022-08-04T05:31:24;20.40;99.90
5429;DHT22;2737;52.386;9.980;2022-08-04T05:33:54;20.40;99.90
5429;DHT22;2737;52.386;9.980;2022-08-04T05:36:26;20.40;99.90
5429;DHT22;2737;52.386;9.980;2022-08-04T05:38:57;20.40;99.90
5429;DHT22;2737;52.386;9.980;2022-08-04T05:41:27;20.40;99.90
5429;DHT22;2737;52.386;9.980;2022-08-04T05:43:55;20.60;99.90
5429;DHT22;2737;52.386;9.980;2022-08-04T05:46:24;20.60;99.90
5429;DHT22;2737;52.386;9.980;2022-08-04T05:48:52;20.70;99.90
5429;DHT22;2737;52.386;9.980;2022-08-04T05:51:19;20.90;99.90
5429;DHT22;2737;52.386;9.980;2022-08-04T05:53:49;20.90;99.90
5429;DHT22;2737;52.386;9.980;2022-08-04T05:56:17;20.90;99.90
5429;DHT22;2737;52.386;9.980;2022-08-04T05:58:45;20.90;99.90
5429;DHT22;2737;52.386;9.980;2022-08-04T06:01:13;21.00;99.90
5429;DHT22;2737;52.386;9.980;2022-08-04T06:03:43;21.20;99.90
5429;DHT22;2737;52.386;9.980;2022-08-04T06:06:13;21.30;99.90
5429;DHT22;2737;52.386;9.980;2022-08-04T06:08:40;21.60;99.90
5429;DHT22;2737;52.386;9.980;2022-08-04T06:11:11;21.70;99.90
5429;DHT22;2737;52.386;9.980;2022-08-04T06:13:42;21.90;99.90
5429;DHT22;2737;52.386;9.980;2022-08-04T06:16:10;22.10;99.90
5429;DHT22;2737;52.386;9.980;2022-08-04T06:18:40;22.30;99.90
5429;DHT22;2737;52.386;9.980;2022-08-04T06:21:10;22.50;99.90
5429;DHT22;2737;52.386;9.980;2022-08-04T06:23:39;22.80;99.90
5429;DHT22;2737;52.386;9.980;2022-08-04T06:26:10;23.00;99.90
5429;DHT22;2737;52.386;9.980;2022-08-04T06:28:44;23.20;99.90
5429;DHT22;2737;52.386;9.980;2022-08-04T06:31:13;23.50;99.90
5429;DHT22;2737;52.386;9.980;2022-08-04T06:33:47;23.70;99.90
5429;DHT22;2737;52.386;9.980;2022-08-04T06:36:17;23.90;99.90
5429;DHT22;2737;52.386;9.980;2022-08-04T06:38:45;24.10;99.90
5429;DHT22;2737;52.386;9.980;2022-08-04T06:41:14;24.30;99.90
5429;DHT22;2737;52.386;9.980;2022-08-04T06:43:41;24.60;99.90
5429;DHT22;2737;52.386;9.980;2022-08-04T06:46:09;24.70;99.90
5429;DHT22;2737;52.386;9.980;2022-08-04T06:48:36;24.90;99.90
5429;DHT22;2737;52.386;9.980;2022-08-04T06:51:05;25.00;99.90
5429;DHT22;2737;52.386;9.980;2022-08-04T06:53:32;25.20;99.90
5429;DHT22;2737;52.386;9.980;2022-08-04T06:56:00;25.40;99.90
5429;DHT22;2737;52.386;9.980;2022-08-04T06:58:31;25.60;99.90
5429;DHT22;2737;52.386;9.980;2022-08-04T07:00:59;25.80;99.90
5429;DHT22;2737;52.386;9.980;2022-08-04T07:03:27;26.00;99.90
5429;DHT22;2737;52.386;9.980;2022-08-04T07:05:55;26.20;99.90
5429;DHT22;2737;52.386;9.980;2022-08-04T07:08:22;26.50;99.90
5429;DHT22;2737;52.386;9.980;2022-08-04T07:10:50;26.70;99.90
5429;DHT22;2737;52.386;9.980;2022-08-04T07:13:20;26.90;99.90
5429;DHT22;2737;52.386;9.980;2022-08-04T07:15:49;27.00;99.90
5429;DHT22;2737;52.386;9.980;2022-08-04T07:18:17;27.20;99.90
5429;DHT22;2737;52.386;9.980;2022-08-04T07:20:45;27.40;99.90
5429;DHT22;2737;52.386;9.980;2022-08-04T07:23:14;27.50;99.90
5429;DHT22;2737;52.386;9.980;2022-08-04T07:25:49;27.60;99.90
5429;DHT22;2737;52.386;9.980;2022-08-04T07:28:17;27.80;99.90
5429;DHT22;2737;52.386;9.980;2022-08-04T07:30:46;28.00;99.90
5429;DHT22;2737;52.386;9.980;2022-08-04T07:33:15;28.20;99.90
5429;DHT22;2737;52.386;9.980;2022-08-04T07:35:43;28.40;99.90
5429;DHT22;2737;52.386;9.980;2022-08-04T07:38:11;28.60;99.90
5429;DHT22;2737;52.386;9.980;2022-08-04T07:40:38;28.80;99.90
5429;DHT22;2737;52.386;9.980;2022-08-04T07:43:06;29.00;99.90
5429;DHT22;2737;52.386;9.980;2022-08-04T07:45:34;29.20;99.90
5429;DHT22;2737;52.386;9.980;2022-08-04T07:48:02;29.40;99.90
5429;DHT22;2737;52.386;9.980;2022-08-04T07:50:33;29.60;99.90
5429;DHT22;2737;52.386;9.980;2022-08-04T07:53:01;29.80;99.90
5429;DHT22;2737;52.386;9.980;2022-08-04T07:55:29;29.90;99.90
5429;DHT22;2737;52.386;9.980;2022-08-04T07:57:56;30.00;99.90
5429;DHT22;2737;52.386;9.980;2022-08-04T08:00:23;30.10;99.90
5429;DHT22;2737;52.386;9.980;2022-08-04T08:02:54;30.20;99.80
5429;DHT22;2737;52.386;9.980;2022-08-04T08:05:22;30.40;99.70
5429;DHT22;2737;52.386;9.980;2022-08-04T08:07:51;30.50;98.40
5429;DHT22;2737;52.386;9.980;2022-08-04T08:10:18;30.60;98.70
5429;DHT22;2737;52.386;9.980;2022-08-04T08:12:45;30.70;98.10
5429;DHT22;2737;52.386;9.980;2022-08-04T08:15:13;30.80;97.60
5429;DHT22;2737;52.386;9.980;2022-08-04T08:17:40;30.90;97.40
5429;DHT22;2737;52.386;9.980;2022-08-04T08:20:08;31.00;96.40
5429;DHT22;2737;52.386;9.980;2022-08-04T08:22:36;31.00;96.10
5429;DHT22;2737;52.386;9.980;2022-08-04T08:25:06;31.10;95.20
5429;DHT22;2737;52.386;9.980;2022-08-04T08:27:33;31.20;94.40
5429;DHT22;2737;52.386;9.980;2022-08-04T08:30:03;31.30;93.90
5429;DHT22;2737;52.386;9.980;2022-08-04T08:32:30;31.40;93.80
5429;DHT22;2737;52.386;9.980;2022-08-04T08:34:57;31.50;93.10
5429;DHT22;2737;52.386;9.980;2022-08-04T08:37:31;31.60;94.00
5429;DHT22;2737;52.386;9.980;2022-08-04T08:40:14;31.80;93.70
5429;DHT22;2737;52.386;9.980;2022-08-04T08:43:14;32.00;92.50
5429;DHT22;2737;52.386;9.980;2022-08-04T08:46:06;32.20;93.10
5429;DHT22;2737;52.386;9.980;2022-08-04T08:48:52;32.40;91.70
5429;DHT22;2737;52.386;9.980;2022-08-04T08:51:42;32.50;90.70
5429;DHT22;2737;52.386;9.980;2022-08-04T08:54:46;32.40;90.40
5429;DHT22;2737;52.386;9.980;2022-08-04T08:57:32;32.60;89.90
5429;DHT22;2737;52.386;9.980;2022-08-04T09:00:07;32.70;89.60
5429;DHT22;2737;52.386;9.980;2022-08-04T09:03:03;32.60;88.90
5429;DHT22;2737;52.386;9.980;2022-08-04T09:05:47;32.60;90.30
5429;DHT22;2737;52.386;9.980;2022-08-04T09:11:24;32.40;88.00
5429;DHT22;2737;52.386;9.980;2022-08-04T09:13:59;32.60;88.70
5429;DHT22;2737;52.386;9.980;2022-08-04T09:16:35;32.70;88.60
5429;DHT22;2737;52.386;9.980;2022-08-04T09:19:09;32.80;88.50
5429;DHT22;2737;52.386;9.980;2022-08-04T09:21:43;32.90;87.90
5429;DHT22;2737;52.386;9.980;2022-08-04T09:24:15;33.00;87.80
5429;DHT22;2737;52.386;9.980;2022-08-04T09:26:48;33.10;86.10
5429;DHT22;2737;52.386;9.980;2022-08-04T09:29:20;33.30;86.30
5429;DHT22;2737;52.386;9.980;2022-08-04T09:31:55;33.30;84.20
5429;DHT22;2737;52.386;9.980;2022-08-04T09:34:33;33.40;84.10
5429;DHT22;2737;52.386;9.980;2022-08-04T09:37:10;33.50;85.60
5429;DHT22;2737;52.386;9.980;2022-08-04T09:39:48;33.60;82.30
5429;DHT22;2737;52.386;9.980;2022-08-04T09:42:22;33.60;82.90
5429;DHT22;2737;52.386;9.980;2022-08-04T09:45:02;33.50;82.70
5429;DHT22;2737;52.386;9.980;2022-08-04T09:47:34;33.60;82.10
5429;DHT22;2737;52.386;9.980;2022-08-04T09:50:14;33.70;81.70
5429;DHT22;2737;52.386;9.980;2022-08-04T09:52:51;33.90;80.60
5429;DHT22;2737;52.386;9.980;2022-08-04T09:55:32;34.00;78.70
5429;DHT22;2737;52.386;9.980;2022-08-04T09:58:06;34.10;78.60
5429;DHT22;2737;52.386;9.980;2022-08-04T10:00:51;34.10;80.30
5429;DHT22;2737;52.386;9.980;2022-08-04T10:03:22;34.10;78.40
5429;DHT22;2737;52.386;9.980;2022-08-04T10:06:04;34.10;78.80
5429;DHT22;2737;52.386;9.980;2022-08-04T10:08:56;34.10;76.50
5429;DHT22;2737;52.386;9.980;2022-08-04T10:11:36;34.30;77.60
5429;DHT22;2737;52.386;9.980;2022-08-04T10:14:20;34.20;75.60
5429;DHT22;2737;52.386;9.980;2022-08-04T10:17:00;34.20;75.90
5429;DHT22;2737;52.386;9.980;2022-08-04T10:19:34;34.30;76.30
5429;DHT22;2737;52.386;9.980;2022-08-04T10:22:10;34.30;76.50
5429;DHT22;2737;52.386;9.980;2022-08-04T10:24:51;34.40;75.10
5429;DHT22;2737;52.386;9.980;2022-08-04T10:27:24;34.40;73.20
5429;DHT22;2737;52.386;9.980;2022-08-04T10:29:57;34.40;75.00
5429;DHT22;2737;52.386;9.980;2022-08-04T10:32:33;34.40;72.90
5429;DHT22;2737;52.386;9.980;2022-08-04T10:35:06;34.40;72.10
5429;DHT22;2737;52.386;9.980;2022-08-04T10:37:41;34.50;72.40
5429;DHT22;2737;52.386;9.980;2022-08-04T10:40:15;34.50;72.20
5429;DHT22;2737;52.386;9.980;2022-08-04T10:43:04;34.60;72.80
5429;DHT22;2737;52.386;9.980;2022-08-04T10:45:40;34.70;71.80
5429;DHT22;2737;52.386;9.980;2022-08-04T10:48:16;34.70;71.30
5429;DHT22;2737;52.386;9.980;2022-08-04T10:50:55;34.70;70.60
5429;DHT22;2737;52.386;9.980;2022-08-04T10:53:26;34.80;71.20
5429;DHT22;2737;52.386;9.980;2022-08-04T10:56:01;34.80;70.80
5429;DHT22;2737;52.386;9.980;2022-08-04T10:58:34;34.80;72.60
5429;DHT22;2737;52.386;9.980;2022-08-04T11:01:11;34.90;71.20
5429;DHT22;2737;52.386;9.980;2022-08-04T11:03:48;34.90;70.90
5429;DHT22;2737;52.386;9.980;2022-08-04T11:06:18;35.00;69.40
5429;DHT22;2737;52.386;9.980;2022-08-04T11:08:49;35.10;71.50
5429;DHT22;2737;52.386;9.980;2022-08-04T11:11:23;35.10;68.80
5429;DHT22;2737;52.386;9.980;2022-08-04T11:13:59;34.90;67.80
5429;DHT22;2737;52.386;9.980;2022-08-04T11:16:32;34.70;69.30
5429;DHT22;2737;52.386;9.980;2022-08-04T11:19:10;34.50;69.30
5429;DHT22;2737;52.386;9.980;2022-08-04T11:21:43;34.50;70.10
5429;DHT22;2737;52.386;9.980;2022-08-04T11:24:15;34.40;69.80
5429;DHT22;2737;52.386;9.980;2022-08-04T11:26:48;34.40;70.70
5429;DHT22;2737;52.386;9.980;2022-08-04T11:29:24;34.40;68.90
5429;DHT22;2737;52.386;9.980;2022-08-04T11:31:53;34.40;69.80
5429;DHT22;2737;52.386;9.980;2022-08-04T11:34:24;34.40;69.20
5429;DHT22;2737;52.386;9.980;2022-08-04T11:36:57;34.50;68.50
5429;DHT22;2737;52.386;9.980;2022-08-04T11:39:28;34.70;68.30
5429;DHT22;2737;52.386;9.980;2022-08-04T11:42:04;34.80;69.60
5429;DHT22;2737;52.386;9.980;2022-08-04T11:44:40;34.90;68.60
5429;DHT22;2737;52.386;9.980;2022-08-04T11:47:19;34.80;68.40
5429;DHT22;2737;52.386;9.980;2022-08-04T11:49:54;34.70;69.20
5429;DHT22;2737;52.386;9.980;2022-08-04T11:52:22;34.80;70.40
5429;DHT22;2737;52.386;9.980;2022-08-04T11:54:51;34.70;69.50
5429;DHT22;2737;52.386;9.980;2022-08-04T11:57:18;34.50;69.90
5429;DHT22;2737;52.386;9.980;2022-08-04T11:59:46;34.50;71.40
5429;DHT22;2737;52.386;9.980;2022-08-04T12:02:38;34.50;71.00
5429;DHT22;2737;52.386;9.980;2022-08-04T12:05:09;34.70;70.00
5429;DHT22;2737;52.386;9.980;2022-08-04T12:07:48;34.70;68.20
5429;DHT22;2737;52.386;9.980;2022-08-04T12:10:29;34.80;68.80
5429;DHT22;2737;52.386;9.980;2022-08-04T12:13:08;35.10;70.60
5429;DHT22;2737;52.386;9.980;2022-08-04T12:15:41;35.20;69.10
5429;DHT22;2737;52.386;9.980;2022-08-04T12:18:19;35.20;68.80
5429;DHT22;2737;52.386;9.980;2022-08-04T12:20:50;35.20;70.10
5429;DHT22;2737;52.386;9.980;2022-08-04T12:23:24;35.30;69.90
5429;DHT22;2737;52.386;9.980;2022-08-04T12:25:55;35.60;68.40
5429;DHT22;2737;52.386;9.980;2022-08-04T12:28:30;35.50;68.80
5429;DHT22;2737;52.386;9.980;2022-08-04T12:31:01;35.60;69.30
5429;DHT22;2737;52.386;9.980;2022-08-04T12:33:34;35.70;66.80
5429;DHT22;2737;52.386;9.980;2022-08-04T12:36:14;35.60;66.70
5429;DHT22;2737;52.386;9.980;2022-08-04T12:38:48;35.60;68.00
5429;DHT22;2737;52.386;9.980;2022-08-04T12:41:23;35.80;67.70
5429;DHT22;2737;52.386;9.980;2022-08-04T12:43:51;35.70;63.60
5429;DHT22;2737;52.386;9.980;2022-08-04T12:46:21;35.60;64.00
5429;DHT22;2737;52.386;9.980;2022-08-04T12:48:50;35.40;64.60
5429;DHT22;2737;52.386;9.980;2022-08-04T12:51:19;35.50;64.10
5429;DHT22;2737;52.386;9.980;2022-08-04T12:53:48;35.30;63.30
5429;DHT22;2737;52.386;9.980;2022-08-04T12:56:24;35.20;64.80
5429;DHT22;2737;52.386;9.980;2022-08-04T12:58:53;35.30;64.30
5429;DHT22;2737;52.386;9.980;2022-08-04T13:01:26;35.30;64.60
5429;DHT22;2737;52.386;9.980;2022-08-04T13:03:56;35.50;64.70
5429;DHT22;2737;52.386;9.980;2022-08-04T13:06:27;35.70;65.00
5429;DHT22;2737;52.386;9.980;2022-08-04T13:09:02;35.60;64.00
5429;DHT22;2737;52.386;9.980;2022-08-04T13:11:35;35.60;64.20
5429;DHT22;2737;52.386;9.980;2022-08-04T13:14:03;35.60;63.90
5429;DHT22;2737;52.386;9.980;2022-08-04T13:16:32;35.60;64.10
5429;DHT22;2737;52.386;9.980;2022-08-04T13:19:00;35.70;65.10
5429;DHT22;2737;52.386;9.980;2022-08-04T13:21:29;35.80;64.40
5429;DHT22;2737;52.386;9.980;2022-08-04T13:24:02;35.40;64.80
5429;DHT22;2737;52.386;9.980;2022-08-04T13:26:31;35.30;64.30
5429;DHT22;2737;52.386;9.980;2022-08-04T13:29:06;35.40;64.50
5429;DHT22;2737;52.386;9.980;2022-08-04T13:31:35;35.50;64.80
5429;DHT22;2737;52.386;9.980;2022-08-04T13:34:05;35.70;64.00
5429;DHT22;2737;52.386;9.980;2022-08-04T13:36:35;35.80;65.20
5429;DHT22;2737;52.386;9.980;2022-08-04T13:39:06;36.00;64.30
5429;DHT22;2737;52.386;9.980;2022-08-04T13:41:35;36.00;63.80
5429;DHT22;2737;52.386;9.980;2022-08-04T13:44:06;36.10;63.00
5429;DHT22;2737;52.386;9.980;2022-08-04T13:46:38;36.10;63.20
5429;DHT22;2737;52.386;9.980;2022-08-04T13:49:09;36.10;62.10
5429;DHT22;2737;52.386;9.980;2022-08-04T13:51:40;35.70;62.80
5429;DHT22;2737;52.386;9.980;2022-08-04T13:54:08;35.50;62.80
5429;DHT22;2737;52.386;9.980;2022-08-04T13:56:38;35.30;63.40
5429;DHT22;2737;52.386;9.980;2022-08-04T13:59:09;35.10;62.70
5429;DHT22;2737;52.386;9.980;2022-08-04T14:01:42;34.90;64.10
5429;DHT22;2737;52.386;9.980;2022-08-04T14:04:14;34.70;64.70
5429;DHT22;2737;52.386;9.980;2022-08-04T14:06:49;34.50;64.40
5429;DHT22;2737;52.386;9.980;2022-08-04T14:09:19;34.60;65.80
5429;DHT22;2737;52.386;9.980;2022-08-04T14:11:49;34.60;66.20
5429;DHT22;2737;52.386;9.980;2022-08-04T14:14:18;34.60;67.00
5429;DHT22;2737;52.386;9.980;2022-08-04T14:16:57;34.60;67.10
5429;DHT22;2737;52.386;9.980;2022-08-04T14:19:24;34.50;67.30
5429;DHT22;2737;52.386;9.980;2022-08-04T14:21:53;34.40;66.60
5429;DHT22;2737;52.386;9.980;2022-08-04T14:24:24;34.40;66.70
5429;DHT22;2737;52.386;9.980;2022-08-04T14:26:51;34.40;67.80
5429;DHT22;2737;52.386;9.980;2022-08-04T14:29:19;34.50;67.80
5429;DHT22;2737;52.386;9.980;2022-08-04T14:31:48;34.50;68.20
5429;DHT22;2737;52.386;9.980;2022-08-04T14:34:25;34.60;67.00
5429;DHT22;2737;52.386;9.980;2022-08-04T14:36:54;34.70;67.10
5429;DHT22;2737;52.386;9.980;2022-08-04T14:39:46;34.80;67.00
5429;DHT22;2737;52.386;9.980;2022-08-04T14:42:13;34.80;67.00
5429;DHT22;2737;52.386;9.980;2022-08-04T14:44:54;34.90;67.80
5429;DHT22;2737;52.386;9.980;2022-08-04T14:47:45;35.10;66.40
5429;DHT22;2737;52.386;9.980;2022-08-04T14:50:13;35.30;66.90
5429;DHT22;2737;52.386;9.980;2022-08-04T14:52:42;35.40;66.20
5429;DHT22;2737;52.386;9.980;2022-08-04T14:55:16;35.40;65.40
5429;DHT22;2737;52.386;9.980;2022-08-04T14:57:44;35.20;65.00
5429;DHT22;2737;52.386;9.980;2022-08-04T15:00:12;35.10;64.70
5429;DHT22;2737;52.386;9.980;2022-08-04T15:02:50;35.00;65.80
5429;DHT22;2737;52.386;9.980;2022-08-04T15:05:19;35.00;66.20
5429;DHT22;2737;52.386;9.980;2022-08-04T15:07:49;34.80;65.40
5429;DHT22;2737;52.386;9.980;2022-08-04T15:10:19;34.80;65.90
5429;DHT22;2737;52.386;9.980;2022-08-04T15:12:46;34.90;66.20
5429;DHT22;2737;52.386;9.980;2022-08-04T15:15:14;34.90;65.30
5429;DHT22;2737;52.386;9.980;2022-08-04T15:17:41;34.90;65.70
5429;DHT22;2737;52.386;9.980;2022-08-04T15:20:09;34.80;66.50
5429;DHT22;2737;52.386;9.980;2022-08-04T15:22:38;34.80;67.30
5429;DHT22;2737;52.386;9.980;2022-08-04T15:25:07;34.70;69.80
5429;DHT22;2737;52.386;9.980;2022-08-04T15:27:37;34.50;72.60
5429;DHT22;2737;52.386;9.980;2022-08-04T15:30:06;34.20;73.20
5429;DHT22;2737;52.386;9.980;2022-08-04T15:32:36;34.00;73.90
5429;DHT22;2737;52.386;9.980;2022-08-04T15:35:07;33.70;73.50
5429;DHT22;2737;52.386;9.980;2022-08-04T15:37:48;33.50;75.20
5429;DHT22;2737;52.386;9.980;2022-08-04T15:40:23;33.60;74.50
5429;DHT22;2737;52.386;9.980;2022-08-04T15:43:04;33.70;76.00
5429;DHT22;2737;52.386;9.980;2022-08-04T15:45:47;33.70;71.20
5429;DHT22;2737;52.386;9.980;2022-08-04T15:48:32;33.50;70.50
5429;DHT22;2737;52.386;9.980;2022-08-04T15:51:02;33.40;72.80
5429;DHT22;2737;52.386;9.980;2022-08-04T15:53:31;33.40;73.90
5429;DHT22;2737;52.386;9.980;2022-08-04T15:56:00;33.40;73.60
5429;DHT22;2737;52.386;9.980;2022-08-04T15:58:47;33.20;74.30
5429;DHT22;2737;52.386;9.980;2022-08-04T16:01:15;33.00;74.00
5429;DHT22;2737;52.386;9.980;2022-08-04T16:03:44;32.90;74.20
5429;DHT22;2737;52.386;9.980;2022-08-04T16:09:23;32.80;72.90
5429;DHT22;2737;52.386;9.980;2022-08-04T16:11:52;32.30;76.20
5429;DHT22;2737;52.386;9.980;2022-08-04T16:14:34;31.90;78.20
5429;DHT22;2737;52.386;9.980;2022-08-04T16:17:15;31.60;80.80
5429;DHT22;2737;52.386;9.980;2022-08-04T16:20:02;31.50;81.80
5429;DHT22;2737;52.386;9.980;2022-08-04T16:22:36;31.10;83.80
5429;DHT22;2737;52.386;9.980;2022-08-04T16:25:05;30.90;85.00
5429;DHT22;2737;52.386;9.980;2022-08-04T16:27:41;30.60;86.70
5429;DHT22;2737;52.386;9.980;2022-08-04T16:30:10;30.40;88.00
5429;DHT22;2737;52.386;9.980;2022-08-04T16:32:43;30.10;88.10
5429;DHT22;2737;52.386;9.980;2022-08-04T16:35:20;29.80;87.50
5429;DHT22;2737;52.386;9.980;2022-08-04T16:37:47;29.50;87.30
5429;DHT22;2737;52.386;9.980;2022-08-04T16:40:29;29.50;88.80
5429;DHT22;2737;52.386;9.980;2022-08-04T16:43:08;29.40;88.70
5429;DHT22;2737;52.386;9.980;2022-08-04T16:45:44;29.00;88.90
5429;DHT22;2737;52.386;9.980;2022-08-04T16:48:11;28.90;88.70
5429;DHT22;2737;52.386;9.980;2022-08-04T16:50:50;28.70;88.70
5429;DHT22;2737;52.386;9.980;2022-08-04T16:53:19;28.50;87.90
5429;DHT22;2737;52.386;9.980;2022-08-04T16:55:48;28.50;88.40
5429;DHT22;2737;52.386;9.980;2022-08-04T16:58:22;28.30;88.80
5429;DHT22;2737;52.386;9.980;2022-08-04T17:00:50;28.00;88.80
5429;DHT22;2737;52.386;9.980;2022-08-04T17:03:17;27.90;90.00
5429;DHT22;2737;52.386;9.980;2022-08-04T17:05:44;27.80;90.30
5429;DHT22;2737;52.386;9.980;2022-08-04T17:08:11;27.70;90.60
5429;DHT22;2737;52.386;9.980;2022-08-04T17:10:40;27.70;91.00
5429;DHT22;2737;52.386;9.980;2022-08-04T17:13:29;27.70;91.20
5429;DHT22;2737;52.386;9.980;2022-08-04T17:15:57;27.70;91.30
5429;DHT22;2737;52.386;9.980;2022-08-04T17:18:27;27.90;91.50
5429;DHT22;2737;52.386;9.980;2022-08-04T17:20:57;27.90;91.50
5429;DHT22;2737;52.386;9.980;2022-08-04T17:23:34;27.70;91.60
5429;DHT22;2737;52.386;9.980;2022-08-04T17:26:04;27.50;92.00
5429;DHT22;2737;52.386;9.980;2022-08-04T17:28:33;27.40;92.50